Bergheim, Austria
Current Conditions -  °F | °C
As of 2:50 AM on Sunday 26 Oct 2014 (Local Time) from LOWS Reporting Station
Drizzle Drizzle  
Wind Chill: 44°   Ceiling: Unl
Heat Index: 46°   Visibility: 4mi
Dew Point: 45°   Wind: 5mph
Humidity: 93%   Direction: 150°SSE
Pressure: 30.3"   Gusts: NA
Location:  47.84°N, 13.02°E
Report Text: LOWS 260050Z AUTO 15004KT 6000 DZ SCT020 SCT200 08/07 Q1026
Loading
Personal Weather Stations






























Interactive Weather Map
Tropical Storm Tracking
New forecast layout! Learn more

10-Day Weather Forecast

Advertisements
Track Severe Weather on mobile